Time;durP1;ratioP1;P1;durP2;ratioP2;P2;SDS_P1;SDS_P2;PMS_P1;PMS_P2;Temp;Humidity;BMP_temperature;BMP_pressure;BME280_temperature;BME280_humidity;BME280_pressure;Samples;Min_cycle;Max_cycle;Signal;HPM_P1;HPM_P2
2021/07/24 00:01:25;;;;;;;;;;;27.10;52.30;;;;;;5072415;28;19920;-64
2021/07/24 00:03:51;;;;;;;;;;;27.00;52.20;;;;;;5072279;28;19919;-62
2021/07/24 00:06:16;;;;;;;;;;;27.10;52.30;;;;;;5085352;28;19911;-64
2021/07/24 00:08:42;;;;;;;;;;;27.00;52.20;;;;;;5088673;28;19909;-64
2021/07/24 00:11:08;;;;;;;;;;;27.00;52.20;;;;;;5085706;28;19919;-60
2021/07/24 00:13:34;;;;;;;;;;;27.00;52.20;;;;;;5091767;28;19920;-62
2021/07/24 00:15:59;;;;;;;;;;;27.00;52.20;;;;;;5086329;28;20396;-62
2021/07/24 00:18:25;;;;;;;;;;;27.00;52.20;;;;;;5089504;28;19916;-61
2021/07/24 00:20:50;;;;;;;;;;;27.00;52.20;;;;;;5090839;28;20309;-61
2021/07/24 00:23:16;;;;;;;;;;;27.00;52.20;;;;;;5088349;28;19919;-62
2021/07/24 00:25:42;;;;;;;;;;;27.00;52.20;;;;;;5094226;28;20266;-64
2021/07/24 00:28:07;;;;;;;;;;;27.00;52.20;;;;;;5096593;28;19908;-61
2021/07/24 00:30:40;;;;;;;;;;;27.00;52.20;;;;;;5069283;28;19978;-63
2021/07/24 00:33:06;;;;;;;;;;;27.00;52.20;;;;;;5089526;28;20275;-61
2021/07/24 00:35:32;;;;;;;;;;;27.00;52.20;;;;;;5089403;28;20007;-61
2021/07/24 00:37:57;;;;;;;;;;;27.00;52.20;;;;;;5088947;28;19912;-62
2021/07/24 00:40:24;;;;;;;;;;;27.00;52.20;;;;;;5084405;28;19954;-65
2021/07/24 00:42:51;;;;;;;;;;;27.00;52.20;;;;;;5090216;28;19915;-63
2021/07/24 00:45:17;;;;;;;;;;;27.00;52.20;;;;;;5089393;28;19963;-63
2021/07/24 00:47:44;;;;;;;;;;;26.90;52.20;;;;;;5086331;28;19953;-63
2021/07/24 00:50:14;;;;;;;;;;;27.00;52.20;;;;;;5090730;28;20275;-65
2021/07/24 00:52:41;;;;;;;;;;;26.90;52.10;;;;;;5091179;28;19915;-62
2021/07/24 00:55:07;;;;;;;;;;;26.90;52.10;;;;;;5094855;28;19962;-63
2021/07/24 00:57:34;;;;;;;;;;;26.90;52.20;;;;;;5088315;28;20696;-62
2021/07/24 01:00:00;;;;;;;;;;;26.90;52.10;;;;;;5087887;28;19912;-62
2021/07/24 01:02:25;;;;;;;;;;;26.90;52.20;;;;;;5085785;28;20013;-64
2021/07/24 01:04:51;;;;;;;;;;;26.90;52.20;;;;;;5088778;28;19915;-62
2021/07/24 01:07:16;;;;;;;;;;;26.90;52.20;;;;;;5094186;28;20321;-64
2021/07/24 01:09:42;;;;;;;;;;;26.90;52.20;;;;;;5099111;28;20339;-67
2021/07/24 01:12:07;;;;;;;;;;;26.90;52.10;;;;;;5089698;28;19920;-64
2021/07/24 01:14:33;;;;;;;;;;;26.90;52.10;;;;;;5096534;28;19912;-63
2021/07/24 01:16:59;;;;;;;;;;;26.90;52.20;;;;;;5085803;28;19908;-64
2021/07/24 01:19:24;;;;;;;;;;;26.90;52.20;;;;;;5100299;28;19916;-61
2021/07/24 01:21:50;;;;;;;;;;;26.90;52.20;;;;;;5077979;28;20881;-62
2021/07/24 01:24:15;;;;;;;;;;;26.90;52.20;;;;;;5089295;28;19916;-61
2021/07/24 01:26:44;;;;;;;;;;;26.90;52.10;;;;;;5088016;28;20056;-63
2021/07/24 01:29:16;;;;;;;;;;;26.90;52.20;;;;;;5090732;28;19919;-61
2021/07/24 01:31:42;;;;;;;;;;;26.90;52.10;;;;;;5076818;28;19916;-65
2021/07/24 01:34:08;;;;;;;;;;;26.90;52.10;;;;;;5087708;28;19924;-62
2021/07/24 01:36:33;;;;;;;;;;;26.90;52.20;;;;;;5087984;28;19919;-61
2021/07/24 01:38:59;;;;;;;;;;;26.90;52.10;;;;;;5081026;28;19915;-62
2021/07/24 01:41:24;;;;;;;;;;;26.80;52.10;;;;;;5085551;28;19916;-62
2021/07/24 01:43:50;;;;;;;;;;;26.80;52.30;;;;;;5089762;28;19916;-63
2021/07/24 01:46:15;;;;;;;;;;;26.80;52.10;;;;;;5085775;28;19947;-62
2021/07/24 01:54:01;;;;;;;;;;;26.80;52.00;;;;;;5084060;28;19981;-61
2021/07/24 01:56:29;;;;;;;;;;;26.80;52.10;;;;;;5076756;28;19974;-63
2021/07/24 01:58:54;;;;;;;;;;;26.80;52.00;;;;;;5083886;28;19962;-62
2021/07/24 02:01:22;;;;;;;;;;;26.80;52.10;;;;;;5081458;28;20342;-63
2021/07/24 02:03:54;;;;;;;;;;;26.80;52.10;;;;;;5087347;28;20192;-63
2021/07/24 02:06:19;;;;;;;;;;;26.80;52.10;;;;;;5087623;28;20350;-60
2021/07/24 02:08:49;;;;;;;;;;;26.80;52.10;;;;;;5085162;28;19936;-63
2021/07/24 02:11:15;;;;;;;;;;;26.80;52.10;;;;;;5087538;28;20329;-61
2021/07/24 02:13:40;;;;;;;;;;;26.80;52.10;;;;;;5074482;28;19908;-61
2021/07/24 02:16:06;;;;;;;;;;;26.70;52.00;;;;;;5087378;28;19915;-61
2021/07/24 02:18:32;;;;;;;;;;;26.80;52.10;;;;;;5088239;28;20294;-62
2021/07/24 02:20:58;;;;;;;;;;;26.80;52.10;;;;;;5051879;28;20371;-61
2021/07/24 02:23:23;;;;;;;;;;;26.80;52.10;;;;;;5078180;28;20441;-63
2021/07/24 02:25:49;;;;;;;;;;;26.70;52.00;;;;;;5082074;28;19908;-64
2021/07/24 02:28:15;;;;;;;;;;;26.80;52.10;;;;;;5092212;28;19908;-61
2021/07/24 02:30:40;;;;;;;;;;;26.80;52.10;;;;;;5087193;28;19920;-64
2021/07/24 02:33:06;;;;;;;;;;;26.80;52.10;;;;;;5084196;28;20038;-62
2021/07/24 02:35:31;;;;;;;;;;;26.70;52.50;;;;;;5084931;28;19915;-61
2021/07/24 02:37:57;;;;;;;;;;;26.80;52.10;;;;;;5086406;28;19911;-62
2021/07/24 02:40:23;;;;;;;;;;;26.80;52.10;;;;;;5086101;28;19910;-63
2021/07/24 02:42:49;;;;;;;;;;;26.70;52.00;;;;;;5086455;28;20290;-61
2021/07/24 02:45:14;;;;;;;;;;;26.70;52.00;;;;;;5070382;28;19912;-60
2021/07/24 02:47:40;;;;;;;;;;;26.70;52.00;;;;;;5089574;28;19915;-62
2021/07/24 02:50:05;;;;;;;;;;;26.70;52.00;;;;;;5086485;28;19907;-62
2021/07/24 02:52:31;;;;;;;;;;;26.70;52.00;;;;;;5087650;28;19912;-61
2021/07/24 02:54:56;;;;;;;;;;;26.70;52.00;;;;;;5084643;28;19961;-62
2021/07/24 02:57:22;;;;;;;;;;;26.70;52.00;;;;;;5080265;28;19919;-62
2021/07/24 02:59:47;;;;;;;;;;;26.70;52.00;;;;;;5069624;28;19923;-64
2021/07/24 03:02:14;;;;;;;;;;;26.70;52.00;;;;;;5086358;28;19999;-63
2021/07/24 03:04:39;;;;;;;;;;;26.70;52.00;;;;;;5088041;28;19919;-61
2021/07/24 03:07:05;;;;;;;;;;;26.70;52.00;;;;;;5101482;28;19908;-62
2021/07/24 03:09:30;;;;;;;;;;;26.70;52.00;;;;;;5087608;28;19929;-63
2021/07/24 03:11:56;;;;;;;;;;;26.70;52.00;;;;;;5092585;28;19908;-61
2021/07/24 03:14:21;;;;;;;;;;;26.70;52.00;;;;;;5100706;28;20223;-60
2021/07/24 03:16:47;;;;;;;;;;;26.70;52.00;;;;;;5096345;28;19970;-62
2021/07/24 03:19:12;;;;;;;;;;;26.70;52.10;;;;;;5073244;28;20271;-62
2021/07/24 03:21:38;;;;;;;;;;;26.70;52.00;;;;;;5098805;28;19908;-64
2021/07/24 03:24:03;;;;;;;;;;;26.70;52.00;;;;;;5091781;28;19919;-60
2021/07/24 03:26:32;;;;;;;;;;;26.70;52.10;;;;;;5090704;28;20356;-62
2021/07/24 03:28:57;;;;;;;;;;;26.70;52.00;;;;;;5095734;28;19912;-63
2021/07/24 03:31:23;;;;;;;;;;;26.70;52.00;;;;;;5090131;28;20619;-61
2021/07/24 03:33:48;;;;;;;;;;;26.70;52.10;;;;;;5091866;28;19915;-61
2021/07/24 03:36:14;;;;;;;;;;;26.70;52.10;;;;;;5098634;28;20353;-61
2021/07/24 03:38:39;;;;;;;;;;;26.70;52.10;;;;;;5088840;28;19931;-61
2021/07/24 03:41:05;;;;;;;;;;;26.60;52.00;;;;;;5090411;28;19912;-62
2021/07/24 03:43:31;;;;;;;;;;;26.60;52.00;;;;;;5092324;28;19908;-60
2021/07/24 03:45:57;;;;;;;;;;;26.60;52.00;;;;;;5090460;28;19908;-65
2021/07/24 03:48:22;;;;;;;;;;;26.60;52.00;;;;;;5088658;28;19919;-66
2021/07/24 03:50:48;;;;;;;;;;;26.60;50.40;;;;;;5089306;28;19916;-63
2021/07/24 03:53:13;;;;;;;;;;;26.50;49.00;;;;;;5074818;28;20378;-62
2021/07/24 03:55:39;;;;;;;;;;;26.40;48.00;;;;;;5095973;28;19963;-61
2021/07/24 03:58:04;;;;;;;;;;;26.30;47.00;;;;;;5089410;28;19973;-61
2021/07/24 04:00:47;;;;;;;;;;;26.20;46.70;;;;;;5083216;28;19912;-60
2021/07/24 04:03:13;;;;;;;;;;;26.10;47.10;;;;;;5087923;28;19937;-61
2021/07/24 04:05:39;;;;;;;;;;;26.10;47.40;;;;;;5091778;28;20025;-65
2021/07/24 04:08:05;;;;;;;;;;;26.00;47.60;;;;;;5092677;28;19916;-62
2021/07/24 04:10:32;;;;;;;;;;;26.10;47.20;;;;;;5089000;28;20010;-61
2021/07/24 04:12:57;;;;;;;;;;;26.00;47.10;;;;;;5089069;28;19931;-62
2021/07/24 04:15:23;;;;;;;;;;;26.00;47.30;;;;;;5089966;28;19987;-63
2021/07/24 04:17:48;;;;;;;;;;;25.90;47.30;;;;;;5083319;28;20377;-61
2021/07/24 04:20:15;;;;;;;;;;;25.90;47.30;;;;;;5076995;28;20290;-61
2021/07/24 04:22:41;;;;;;;;;;;25.90;47.40;;;;;;5088124;28;20000;-61
2021/07/24 04:25:07;;;;;;;;;;;25.90;47.30;;;;;;5085602;28;19963;-62
2021/07/24 04:27:33;;;;;;;;;;;25.80;47.20;;;;;;5085227;28;19993;-64
2021/07/24 04:29:58;;;;;;;;;;;25.80;47.30;;;;;;5087529;28;19988;-63
2021/07/24 04:32:24;;;;;;;;;;;25.80;47.20;;;;;;5080207;28;20057;-61
2021/07/24 04:34:50;;;;;;;;;;;25.70;47.40;;;;;;5087532;28;19987;-63
2021/07/24 04:37:15;;;;;;;;;;;25.70;47.40;;;;;;5077209;28;19915;-64
2021/07/24 04:39:41;;;;;;;;;;;25.60;47.50;;;;;;5087495;28;20013;-61
2021/07/24 04:42:06;;;;;;;;;;;25.60;47.70;;;;;;5088943;28;19931;-60
2021/07/24 04:44:32;;;;;;;;;;;25.60;47.90;;;;;;5071301;28;19919;-60
2021/07/24 04:46:57;;;;;;;;;;;25.50;48.00;;;;;;5088042;28;20365;-61
2021/07/24 04:49:23;;;;;;;;;;;25.50;48.20;;;;;;5088382;28;20308;-63
2021/07/24 04:51:48;;;;;;;;;;;25.50;48.40;;;;;;5061044;28;20023;-63
2021/07/24 04:54:14;;;;;;;;;;;25.50;48.70;;;;;;5089899;28;19922;-62
2021/07/24 04:56:40;;;;;;;;;;;25.40;48.80;;;;;;5099462;28;19990;-61
2021/07/24 04:59:06;;;;;;;;;;;25.40;49.00;;;;;;5088859;28;20019;-63
2021/07/24 05:01:32;;;;;;;;;;;25.40;49.10;;;;;;5088131;28;19919;-60
2021/07/24 05:03:57;;;;;;;;;;;25.40;49.10;;;;;;5084509;28;20442;-60
2021/07/24 05:06:23;;;;;;;;;;;25.40;49.10;;;;;;5071902;28;20018;-64
2021/07/24 05:08:49;;;;;;;;;;;25.40;49.10;;;;;;5087792;28;19908;-62
2021/07/24 05:11:14;;;;;;;;;;;25.50;49.20;;;;;;5087357;28;19954;-61
2021/07/24 05:13:40;;;;;;;;;;;25.50;49.20;;;;;;5077899;28;19908;-64
2021/07/24 05:16:05;;;;;;;;;;;25.50;49.30;;;;;;5075663;28;19912;-65
2021/07/24 05:18:31;;;;;;;;;;;25.50;49.30;;;;;;5071611;28;19912;-64
2021/07/24 05:20:56;;;;;;;;;;;25.50;49.40;;;;;;5089060;28;20006;-62
2021/07/24 05:23:22;;;;;;;;;;;25.50;49.40;;;;;;5086041;28;19919;-64
2021/07/24 05:25:47;;;;;;;;;;;25.50;49.40;;;;;;5082313;28;19951;-65
2021/07/24 05:28:13;;;;;;;;;;;25.50;49.50;;;;;;5088113;28;20010;-64
2021/07/24 05:30:38;;;;;;;;;;;25.50;49.50;;;;;;5086398;28;20338;-62
2021/07/24 05:33:04;;;;;;;;;;;25.50;49.50;;;;;;5089465;28;19919;-61
2021/07/24 05:35:29;;;;;;;;;;;25.50;49.60;;;;;;5088371;28;20324;-61
2021/07/24 05:37:55;;;;;;;;;;;25.50;49.60;;;;;;5087169;28;19926;-61
2021/07/24 05:40:20;;;;;;;;;;;25.50;49.60;;;;;;5089269;28;19908;-60
2021/07/24 05:42:46;;;;;;;;;;;25.50;49.70;;;;;;5086215;28;19919;-62
2021/07/24 05:45:11;;;;;;;;;;;25.50;49.70;;;;;;5088729;28;20017;-60
2021/07/24 05:47:37;;;;;;;;;;;25.50;49.80;;;;;;5082865;28;20303;-65
2021/07/24 05:50:03;;;;;;;;;;;25.50;49.80;;;;;;5095913;28;19912;-61
2021/07/24 05:52:28;;;;;;;;;;;25.50;49.80;;;;;;5068077;28;19916;-65
2021/07/24 05:54:54;;;;;;;;;;;25.50;49.80;;;;;;5064812;28;19926;-63
2021/07/24 05:57:19;;;;;;;;;;;25.50;49.90;;;;;;5088082;28;20258;-64
2021/07/24 05:59:45;;;;;;;;;;;25.50;50.40;;;;;;5088153;28;19971;-63
2021/07/24 06:02:11;;;;;;;;;;;25.50;49.90;;;;;;5088687;28;20040;-63
2021/07/24 06:04:39;;;;;;;;;;;25.50;50.00;;;;;;5088384;28;20090;-65
2021/07/24 06:07:04;;;;;;;;;;;25.50;50.00;;;;;;5088107;28;19916;-61
2021/07/24 06:09:30;;;;;;;;;;;25.50;50.00;;;;;;5087261;28;19916;-61
2021/07/24 06:11:55;;;;;;;;;;;25.50;50.00;;;;;;5087309;28;19911;-63
2021/07/24 06:14:24;;;;;;;;;;;25.50;50.10;;;;;;5087854;28;19912;-64
2021/07/24 06:16:50;;;;;;;;;;;25.50;50.10;;;;;;5088154;28;19915;-63
2021/07/24 06:19:15;;;;;;;;;;;25.60;50.20;;;;;;5088045;28;19963;-64
2021/07/24 06:21:41;;;;;;;;;;;25.50;50.10;;;;;;5089351;28;19916;-62
2021/07/24 06:24:06;;;;;;;;;;;25.60;50.20;;;;;;5088322;28;19915;-62
2021/07/24 06:26:35;;;;;;;;;;;25.50;50.20;;;;;;5078454;28;19913;-62
2021/07/24 06:29:00;;;;;;;;;;;25.50;50.20;;;;;;5084446;28;19907;-63
2021/07/24 06:31:26;;;;;;;;;;;25.50;50.20;;;;;;5095081;28;19924;-63
2021/07/24 06:33:51;;;;;;;;;;;25.50;50.20;;;;;;5090684;28;19908;-61
2021/07/24 06:36:17;;;;;;;;;;;25.60;50.30;;;;;;5080106;28;19954;-63
2021/07/24 06:38:42;;;;;;;;;;;25.50;50.30;;;;;;5082829;28;20442;-65
2021/07/24 06:41:08;;;;;;;;;;;25.50;50.30;;;;;;5089133;28;19919;-62
2021/07/24 06:43:33;;;;;;;;;;;25.60;50.40;;;;;;5085747;28;20231;-63
2021/07/24 06:46:07;;;;;;;;;;;25.60;50.40;;;;;;5085674;28;19915;-61
2021/07/24 06:48:32;;;;;;;;;;;25.50;50.40;;;;;;5086557;28;20007;-63
2021/07/24 06:50:58;;;;;;;;;;;25.60;50.50;;;;;;5097504;28;19996;-64
2021/07/24 06:53:24;;;;;;;;;;;25.60;50.50;;;;;;5087225;28;19964;-62
2021/07/24 06:55:54;;;;;;;;;;;25.50;50.50;;;;;;5086653;28;20378;-64
2021/07/24 06:58:19;;;;;;;;;;;25.60;50.50;;;;;;5084342;28;19937;-64
2021/07/24 07:00:45;;;;;;;;;;;25.60;50.60;;;;;;5081751;28;20363;-64
2021/07/24 07:03:10;;;;;;;;;;;25.60;50.60;;;;;;5081469;28;19915;-63
2021/07/24 07:05:36;;;;;;;;;;;25.60;50.60;;;;;;5054434;28;19912;-66
2021/07/24 07:08:01;;;;;;;;;;;25.60;50.60;;;;;;5073139;28;20129;-64
2021/07/24 07:10:27;;;;;;;;;;;25.60;50.60;;;;;;5083749;28;20320;-63
2021/07/24 07:12:52;;;;;;;;;;;25.60;50.70;;;;;;5082268;28;19927;-65
2021/07/24 07:15:18;;;;;;;;;;;25.60;50.70;;;;;;5078243;28;19912;-62
2021/07/24 07:17:43;;;;;;;;;;;25.60;50.70;;;;;;5077453;28;20339;-65
2021/07/24 07:20:09;;;;;;;;;;;25.60;51.20;;;;;;5081462;28;19928;-61
2021/07/24 07:22:35;;;;;;;;;;;25.50;50.60;;;;;;5080620;28;20283;-63
2021/07/24 07:25:01;;;;;;;;;;;25.60;50.70;;;;;;5083093;28;19919;-65
2021/07/24 07:27:26;;;;;;;;;;;25.50;50.60;;;;;;5058677;28;19946;-62
2021/07/24 07:29:52;;;;;;;;;;;25.60;50.70;;;;;;5060357;28;20003;-62
2021/07/24 07:32:17;;;;;;;;;;;25.60;50.70;;;;;;5083109;28;19912;-63
2021/07/24 07:34:43;;;;;;;;;;;25.60;50.80;;;;;;5083953;28;19992;-63
2021/07/24 07:37:08;;;;;;;;;;;25.60;50.80;;;;;;5078708;28;19931;-61
2021/07/24 07:39:34;;;;;;;;;;;25.50;50.70;;;;;;5079211;28;19923;-63
2021/07/24 07:41:59;;;;;;;;;;;25.60;50.80;;;;;;5075880;28;19981;-64
2021/07/24 07:44:25;;;;;;;;;;;25.60;50.80;;;;;;5076191;28;19938;-62
2021/07/24 07:46:51;;;;;;;;;;;25.60;50.80;;;;;;5081113;28;20072;-64
2021/07/24 07:49:17;;;;;;;;;;;25.60;50.80;;;;;;5082482;28;19911;-63
2021/07/24 07:51:42;;;;;;;;;;;25.60;50.80;;;;;;5078057;28;19975;-66
2021/07/24 07:54:08;;;;;;;;;;;25.60;50.80;;;;;;5077669;28;19915;-61
2021/07/24 07:56:34;;;;;;;;;;;25.60;50.80;;;;;;5083569;28;19998;-62
2021/07/24 07:58:59;;;;;;;;;;;25.60;50.90;;;;;;5079711;28;19919;-61
2021/07/24 08:01:24;;;;;;;;;;;25.60;50.90;;;;;;5078057;28;19919;-62
2021/07/24 08:03:50;;;;;;;;;;;25.60;50.90;;;;;;5083785;28;20007;-63
2021/07/24 08:06:16;;;;;;;;;;;25.60;51.00;;;;;;5080452;28;19919;-64
2021/07/24 08:08:41;;;;;;;;;;;25.60;51.00;;;;;;5083904;28;20703;-64
2021/07/24 08:11:07;;;;;;;;;;;25.70;51.00;;;;;;5078075;28;19940;-63
2021/07/24 08:13:32;;;;;;;;;;;25.70;50.90;;;;;;5081188;28;19960;-63
2021/07/24 08:15:58;;;;;;;;;;;25.70;51.10;;;;;;5079480;28;19966;-65
2021/07/24 08:18:23;;;;;;;;;;;25.80;50.80;;;;;;5084804;28;19961;-66
2021/07/24 08:20:49;;;;;;;;;;;25.80;50.90;;;;;;5086998;28;20618;-63
2021/07/24 08:23:15;;;;;;;;;;;25.80;50.70;;;;;;5077444;28;20011;-62
2021/07/24 08:25:41;;;;;;;;;;;25.90;50.80;;;;;;5085575;28;19912;-62
2021/07/24 08:28:06;;;;;;;;;;;25.90;50.70;;;;;;5079182;28;19994;-63
2021/07/24 08:30:33;;;;;;;;;;;25.90;50.70;;;;;;5084661;28;20003;-64
2021/07/24 08:32:59;;;;;;;;;;;25.90;50.70;;;;;;5083233;28;19916;-64
2021/07/24 08:35:24;;;;;;;;;;;26.00;50.70;;;;;;5085993;28;20283;-64
2021/07/24 08:37:50;;;;;;;;;;;26.00;50.60;;;;;;5064773;28;19912;-67
2021/07/24 08:40:16;;;;;;;;;;;26.00;50.60;;;;;;5083496;28;19908;-64
2021/07/24 08:42:42;;;;;;;;;;;26.10;50.60;;;;;;5081256;28;19919;-64
2021/07/24 08:45:13;;;;;;;;;;;26.10;50.60;;;;;;5085570;28;20282;-64
2021/07/24 08:47:39;;;;;;;;;;;26.10;50.50;;;;;;5068780;28;19911;-63
2021/07/24 08:50:06;;;;;;;;;;;26.20;50.60;;;;;;5086029;28;19915;-66
2021/07/24 08:52:32;;;;;;;;;;;26.20;50.50;;;;;;5080973;28;19976;-63
2021/07/24 08:55:00;;;;;;;;;;;26.20;50.50;;;;;;5085525;28;20361;-64
2021/07/24 08:57:32;;;;;;;;;;;26.20;50.40;;;;;;5077546;28;19916;-64
2021/07/24 08:59:59;;;;;;;;;;;26.30;50.40;;;;;;5084389;28;19916;-62
2021/07/24 09:02:26;;;;;;;;;;;26.30;50.40;;;;;;5081451;28;19942;-66
2021/07/24 09:04:54;;;;;;;;;;;26.30;50.40;;;;;;5082501;28;19945;-62
2021/07/24 09:07:20;;;;;;;;;;;26.30;50.40;;;;;;5083985;28;20007;-64
2021/07/24 09:09:46;;;;;;;;;;;26.30;50.40;;;;;;5079939;28;20359;-63
2021/07/24 09:12:12;;;;;;;;;;;26.40;50.40;;;;;;5084225;28;19934;-62
2021/07/24 09:14:37;;;;;;;;;;;26.40;50.40;;;;;;5084587;28;19919;-65
2021/07/24 09:17:03;;;;;;;;;;;26.40;50.40;;;;;;5086500;28;19912;-63
2021/07/24 09:19:30;;;;;;;;;;;26.40;50.30;;;;;;5085411;28;20048;-63
2021/07/24 09:21:56;;;;;;;;;;;26.40;50.20;;;;;;5088935;28;20030;-65
2021/07/24 09:24:26;;;;;;;;;;;26.40;50.30;;;;;;5085991;28;20002;-64
2021/07/24 09:26:52;;;;;;;;;;;26.40;50.30;;;;;;5066714;28;19927;-61
2021/07/24 09:29:18;;;;;;;;;;;26.40;50.30;;;;;;5086972;28;19912;-63
2021/07/24 09:31:44;;;;;;;;;;;26.40;50.30;;;;;;5086210;28;19926;-62
2021/07/24 09:34:13;;;;;;;;;;;26.40;50.40;;;;;;5082682;28;19920;-61
2021/07/24 09:36:39;;;;;;;;;;;26.40;50.40;;;;;;5083916;28;19916;-65
2021/07/24 09:39:11;;;;;;;;;;;26.40;50.40;;;;;;5085792;28;19912;-63
2021/07/24 09:41:38;;;;;;;;;;;26.40;50.40;;;;;;5081276;28;20523;-65
2021/07/24 09:44:04;;;;;;;;;;;26.40;51.00;;;;;;5084856;28;19928;-64
2021/07/24 09:46:29;;;;;;;;;;;26.40;50.50;;;;;;5084244;28;19934;-63
2021/07/24 09:48:55;;;;;;;;;;;26.40;50.50;;;;;;5066123;28;19912;-62
2021/07/24 09:51:33;;;;;;;;;;;26.40;50.50;;;;;;5084110;28;19911;-64
2021/07/24 09:53:58;;;;;;;;;;;26.40;50.50;;;;;;5079596;28;19930;-62
2021/07/24 09:56:43;;;;;;;;;;;26.40;50.60;;;;;;5083660;28;19912;-65
2021/07/24 09:59:16;;;;;;;;;;;26.40;50.60;;;;;;5087042;28;20019;-64
2021/07/24 10:01:43;;;;;;;;;;;26.40;50.60;;;;;;5085347;28;19993;-64
2021/07/24 10:04:10;;;;;;;;;;;26.40;50.60;;;;;;5077442;28;20042;-63
2021/07/24 10:06:37;;;;;;;;;;;26.30;50.50;;;;;;5076945;28;19912;-63
2021/07/24 10:09:03;;;;;;;;;;;26.40;50.60;;;;;;5082680;28;20389;-62
2021/07/24 10:11:28;;;;;;;;;;;26.30;50.60;;;;;;5076662;28;19934;-63
2021/07/24 10:13:54;;;;;;;;;;;26.40;50.90;;;;;;5078043;28;19979;-64
2021/07/24 10:16:20;;;;;;;;;;;26.30;51.20;;;;;;5080596;28;19966;-65
2021/07/24 10:18:45;;;;;;;;;;;26.30;51.50;;;;;;5085734;28;19939;-62
2021/07/24 10:21:11;;;;;;;;;;;26.30;51.60;;;;;;5080935;28;19919;-64
2021/07/24 10:23:36;;;;;;;;;;;26.30;51.70;;;;;;5080025;28;19943;-66
2021/07/24 10:26:02;;;;;;;;;;;26.30;51.90;;;;;;5081014;28;19919;-63
2021/07/24 10:28:33;;;;;;;;;;;26.30;52.20;;;;;;5084660;28;19908;-65
2021/07/24 10:31:04;;;;;;;;;;;26.30;52.30;;;;;;5077704;28;19916;-63
2021/07/24 10:33:30;;;;;;;;;;;26.30;52.40;;;;;;5085145;28;19908;-61
2021/07/24 10:36:09;;;;;;;;;;;26.30;52.40;;;;;;5083560;28;19922;-67
2021/07/24 10:38:35;;;;;;;;;;;26.30;52.40;;;;;;5084366;28;19915;-63
2021/07/24 10:41:26;;;;;;;;;;;26.30;52.60;;;;;;5078769;28;19912;-63
2021/07/24 10:43:56;;;;;;;;;;;26.30;53.00;;;;;;5064617;28;19916;-65
2021/07/24 10:46:21;;;;;;;;;;;26.30;53.40;;;;;;5079777;28;20277;-64
2021/07/24 10:48:47;;;;;;;;;;;26.30;53.50;;;;;;5080797;28;19912;-62
2021/07/24 10:51:16;;;;;;;;;;;26.30;53.50;;;;;;5079031;28;19935;-63
2021/07/24 10:54:00;;;;;;;;;;;26.30;53.50;;;;;;5083694;28;19933;-61
2021/07/24 10:56:35;;;;;;;;;;;26.20;53.50;;;;;;5081536;28;19920;-62
2021/07/24 10:59:13;;;;;;;;;;;26.20;53.50;;;;;;5086142;28;20003;-65
2021/07/24 11:01:46;;;;;;;;;;;26.20;53.40;;;;;;5075930;28;19917;-63
2021/07/24 11:04:30;;;;;;;;;;;26.20;53.40;;;;;;5087776;28;19912;-66
2021/07/24 11:07:17;;;;;;;;;;;26.20;53.50;;;;;;5085666;28;19916;-62
2021/07/24 11:09:46;;;;;;;;;;;26.20;53.50;;;;;;5081690;28;19911;-63
2021/07/24 11:12:12;;;;;;;;;;;26.20;53.40;;;;;;5079088;28;19916;-61
2021/07/24 11:14:38;;;;;;;;;;;26.20;53.50;;;;;;5087290;28;19927;-62
2021/07/24 11:17:03;;;;;;;;;;;26.20;53.50;;;;;;5082980;28;19956;-61
2021/07/24 11:19:28;;;;;;;;;;;26.20;53.60;;;;;;5082167;28;19923;-64
2021/07/24 11:22:09;;;;;;;;;;;26.20;53.70;;;;;;5078548;28;20018;-60
2021/07/24 11:24:35;;;;;;;;;;;26.20;53.70;;;;;;5083122;28;19916;-64
2021/07/24 11:27:00;;;;;;;;;;;26.20;53.90;;;;;;5093405;28;19955;-61
2021/07/24 11:29:26;;;;;;;;;;;26.20;54.00;;;;;;5080427;28;19976;-62
2021/07/24 11:31:51;;;;;;;;;;;26.10;53.90;;;;;;5087991;28;19984;-63
2021/07/24 11:34:20;;;;;;;;;;;26.10;54.00;;;;;;5087748;28;19916;-64
2021/07/24 11:36:49;;;;;;;;;;;26.10;54.10;;;;;;5086176;28;19912;-63
2021/07/24 11:39:15;;;;;;;;;;;26.10;54.10;;;;;;5088604;28;19916;-62
2021/07/24 11:41:41;;;;;;;;;;;26.10;54.10;;;;;;5063921;28;20141;-62
2021/07/24 11:44:06;;;;;;;;;;;26.10;54.10;;;;;;5086072;28;20385;-61
2021/07/24 11:46:32;;;;;;;;;;;26.10;54.10;;;;;;5081956;28;19912;-63
2021/07/24 11:49:04;;;;;;;;;;;26.10;54.10;;;;;;5087092;28;19908;-62
2021/07/24 11:51:29;;;;;;;;;;;26.10;54.10;;;;;;5093105;28;20368;-65
2021/07/24 11:53:55;;;;;;;;;;;26.10;54.00;;;;;;5084372;28;19915;-62
2021/07/24 11:56:21;;;;;;;;;;;26.10;54.00;;;;;;5086497;28;19927;-65
2021/07/24 11:58:56;;;;;;;;;;;26.10;53.90;;;;;;5086871;28;19920;-64
2021/07/24 12:01:22;;;;;;;;;;;26.10;53.90;;;;;;5081764;28;20363;-63
2021/07/24 12:04:01;;;;;;;;;;;26.10;54.00;;;;;;5089422;28;20439;-64
2021/07/24 12:06:27;;;;;;;;;;;26.10;54.10;;;;;;5079478;28;19981;-64
2021/07/24 12:08:53;;;;;;;;;;;26.10;54.00;;;;;;5088151;28;19958;-64
2021/07/24 12:11:19;;;;;;;;;;;26.10;54.10;;;;;;5087832;28;20476;-62
2021/07/24 12:13:45;;;;;;;;;;;26.10;54.10;;;;;;5083663;28;19984;-64
2021/07/24 12:16:14;;;;;;;;;;;26.10;54.00;;;;;;5090561;28;19945;-67
2021/07/24 12:18:44;;;;;;;;;;;26.10;54.00;;;;;;5067689;28;19919;-65
2021/07/24 12:21:18;;;;;;;;;;;26.10;54.00;;;;;;5079630;28;19913;-64
2021/07/24 12:23:52;;;;;;;;;;;26.20;54.00;;;;;;5090699;28;20469;-66
2021/07/24 12:26:19;;;;;;;;;;;26.20;53.80;;;;;;5085639;28;20390;-64
2021/07/24 12:28:45;;;;;;;;;;;26.20;53.70;;;;;;5075140;28;19996;-63
2021/07/24 12:31:30;;;;;;;;;;;26.20;53.60;;;;;;5079669;28;20496;-66
2021/07/24 12:34:02;;;;;;;;;;;26.20;53.50;;;;;;5085510;28;19915;-63
2021/07/24 12:36:30;;;;;;;;;;;26.30;53.40;;;;;;5080659;28;20021;-60
2021/07/24 12:38:57;;;;;;;;;;;26.30;53.50;;;;;;5066301;28;19915;-65
2021/07/24 12:41:32;;;;;;;;;;;26.30;53.60;;;;;;5069587;28;19927;-64
2021/07/24 12:44:01;;;;;;;;;;;26.30;53.40;;;;;;5086376;28;20011;-60
2021/07/24 12:46:27;;;;;;;;;;;26.40;53.40;;;;;;5085648;28;19912;-62
2021/07/24 12:48:54;;;;;;;;;;;26.40;53.30;;;;;;5084192;28;19927;-64
2021/07/24 12:51:24;;;;;;;;;;;26.40;53.20;;;;;;5084140;28;19922;-64
2021/07/24 12:53:53;;;;;;;;;;;26.40;53.10;;;;;;5085598;28;19955;-65
2021/07/24 12:56:24;;;;;;;;;;;26.50;53.10;;;;;;5084957;28;20539;-61
2021/07/24 12:58:49;;;;;;;;;;;26.50;53.10;;;;;;5077212;28;20780;-61
2021/07/24 13:01:15;;;;;;;;;;;26.50;53.10;;;;;;5091774;28;20011;-66
2021/07/24 13:03:44;;;;;;;;;;;26.60;53.00;;;;;;5088814;28;19912;-64
2021/07/24 13:06:12;;;;;;;;;;;26.60;53.00;;;;;;5081375;28;19927;-65
2021/07/24 13:08:38;;;;;;;;;;;26.60;52.80;;;;;;5084661;28;19916;-64
2021/07/24 13:11:04;;;;;;;;;;;26.70;52.80;;;;;;5095554;28;19908;-62
2021/07/24 13:13:29;;;;;;;;;;;26.70;52.80;;;;;;5089062;28;19912;-62
2021/07/24 13:15:55;;;;;;;;;;;26.70;52.80;;;;;;5068662;28;20062;-65
2021/07/24 13:18:20;;;;;;;;;;;26.70;52.70;;;;;;5083010;28;19912;-62
2021/07/24 13:20:46;;;;;;;;;;;26.70;52.60;;;;;;5086508;28;19926;-62
2021/07/24 13:23:12;;;;;;;;;;;26.80;52.70;;;;;;5086196;28;20609;-62
2021/07/24 13:28:15;;;;;;;;;;;26.80;53.10;;;;;;5085412;28;19911;-62
2021/07/24 13:30:41;;;;;;;;;;;26.80;53.20;;;;;;5086466;28;19916;-62
2021/07/24 13:33:07;;;;;;;;;;;26.80;52.70;;;;;;5085628;28;20355;-66
2021/07/24 13:35:35;;;;;;;;;;;26.80;52.70;;;;;;5066080;28;19920;-63
2021/07/24 13:38:02;;;;;;;;;;;26.80;52.60;;;;;;5068772;28;19911;-63
2021/07/24 13:40:28;;;;;;;;;;;26.80;52.70;;;;;;5071725;28;19920;-66
2021/07/24 13:42:53;;;;;;;;;;;26.80;52.70;;;;;;5085973;28;19920;-66
2021/07/24 13:45:19;;;;;;;;;;;26.80;52.70;;;;;;5085203;28;19981;-66
2021/07/24 13:47:44;;;;;;;;;;;26.80;52.70;;;;;;5084070;28;19964;-65
2021/07/24 13:50:10;;;;;;;;;;;26.80;52.80;;;;;;5086008;28;20400;-66
2021/07/24 13:52:36;;;;;;;;;;;26.80;52.70;;;;;;5081483;28;20335;-63
2021/07/24 13:55:08;;;;;;;;;;;26.80;52.70;;;;;;5093537;28;19915;-63
2021/07/24 13:57:37;;;;;;;;;;;26.80;52.70;;;;;;5088940;28;20016;-65
2021/07/24 14:00:06;;;;;;;;;;;26.80;52.70;;;;;;5090375;28;20350;-65
2021/07/24 14:02:32;;;;;;;;;;;26.80;52.80;;;;;;5088498;28;19920;-65
2021/07/24 14:04:58;;;;;;;;;;;26.70;52.70;;;;;;5070043;28;19912;-63
2021/07/24 14:07:23;;;;;;;;;;;26.70;52.70;;;;;;5095376;28;19919;-62
2021/07/24 14:09:49;;;;;;;;;;;26.70;52.70;;;;;;5090898;28;20779;-62
2021/07/24 14:12:14;;;;;;;;;;;26.80;52.80;;;;;;5087369;28;20748;-65
2021/07/24 14:14:40;;;;;;;;;;;26.70;52.70;;;;;;5094773;28;19915;-63
2021/07/24 14:17:05;;;;;;;;;;;26.70;52.70;;;;;;5096544;28;20007;-65
2021/07/24 14:19:31;;;;;;;;;;;26.70;52.70;;;;;;5095942;28;19930;-65
2021/07/24 14:21:56;;;;;;;;;;;26.70;52.70;;;;;;5072091;28;19960;-63